createdAt,value
2019-02-16T00:00:37.183Z,94.00
2019-02-16T00:03:05.767Z,93.80
2019-02-16T00:05:34.307Z,93.90
2019-02-16T00:08:03.004Z,93.90
2019-02-16T00:10:31.671Z,93.90
2019-02-16T00:13:00.367Z,93.90
2019-02-16T00:15:29.058Z,93.90
2019-02-16T00:18:09.915Z,93.80
2019-02-16T00:20:38.549Z,93.80
2019-02-16T00:23:07.187Z,93.90
2019-02-16T00:25:35.807Z,93.90
2019-02-16T00:28:04.529Z,94.00
2019-02-16T00:30:33.171Z,94.00
2019-02-16T00:33:01.679Z,94.00
2019-02-16T00:35:30.634Z,94.10
2019-02-16T00:37:59.292Z,94.20
2019-02-16T00:40:27.852Z,94.30
2019-02-16T00:42:56.476Z,94.30
2019-02-16T00:45:25.162Z,94.30
2019-02-16T00:47:53.799Z,94.40
2019-02-16T00:50:22.398Z,94.20
2019-02-16T00:52:51.008Z,94.30
2019-02-16T00:55:19.542Z,94.20
2019-02-16T00:57:48.118Z,94.20
2019-02-16T01:00:16.826Z,94.30
2019-02-16T01:02:45.371Z,94.70
2019-02-16T01:05:14.002Z,94.50
2019-02-16T01:07:42.652Z,94.50
2019-02-16T01:10:11.321Z,94.70
2019-02-16T01:12:39.981Z,94.80
2019-02-16T01:15:09.168Z,94.80
2019-02-16T01:17:37.676Z,95.00
2019-02-16T01:20:08.831Z,95.00
2019-02-16T01:22:37.456Z,94.80
2019-02-16T01:25:06.429Z,95.00
2019-02-16T01:27:34.949Z,95.00
2019-02-16T01:30:03.649Z,95.10
2019-02-16T01:32:32.315Z,95.00
2019-02-16T01:35:00.874Z,95.00
2019-02-16T01:37:29.377Z,95.00
2019-02-16T01:39:57.936Z,95.10
2019-02-16T01:42:26.672Z,95.20
2019-02-16T01:44:55.257Z,95.30
2019-02-16T01:47:23.789Z,95.40
2019-02-16T01:49:52.447Z,95.60
2019-02-16T01:52:21.044Z,95.70
2019-02-16T01:54:49.736Z,95.70
2019-02-16T01:57:18.375Z,95.70
2019-02-16T01:59:47.089Z,95.80
2019-02-16T02:02:15.469Z,96.00
2019-02-16T02:04:44.118Z,96.10
2019-02-16T02:07:12.664Z,96.10
2019-02-16T02:09:41.261Z,96.10
2019-02-16T02:12:10.048Z,96.30
2019-02-16T02:14:38.535Z,96.30
2019-02-16T02:17:07.139Z,96.30
2019-02-16T02:19:35.786Z,96.30
2019-02-16T02:22:04.360Z,96.40
2019-02-16T02:24:33.024Z,96.50
2019-02-16T02:27:01.643Z,96.50
2019-02-16T02:29:30.085Z,96.60
2019-02-16T02:31:58.640Z,96.60
2019-02-16T02:34:27.220Z,96.60
2019-02-16T02:36:55.776Z,96.60
2019-02-16T02:39:24.378Z,96.60
2019-02-16T02:41:53.054Z,96.70
2019-02-16T02:44:21.777Z,96.70
2019-02-16T02:46:50.334Z,96.70
2019-02-16T02:49:19.026Z,96.60
2019-02-16T02:51:52.213Z,96.70
2019-02-16T02:54:17.778Z,96.70
2019-02-16T02:56:46.426Z,96.80
2019-02-16T02:59:15.100Z,96.80
2019-02-16T03:01:43.602Z,96.80
2019-02-16T03:04:12.179Z,96.80
2019-02-16T03:06:40.867Z,96.80
2019-02-16T03:09:09.483Z,96.80
2019-02-16T03:11:38.087Z,96.80
2019-02-16T03:14:06.721Z,96.80
2019-02-16T03:16:35.242Z,96.80
2019-02-16T03:19:03.768Z,96.80
2019-02-16T03:21:32.423Z,96.80
2019-02-16T03:24:00.971Z,96.80
2019-02-16T03:26:42.144Z,96.80
2019-02-16T03:29:28.930Z,96.70
2019-02-16T03:32:09.838Z,96.70
2019-02-16T03:34:53.890Z,96.70
2019-02-16T03:37:42.126Z,96.70
2019-02-16T03:40:12.404Z,96.70
2019-02-16T03:42:41.023Z,96.70
2019-02-16T03:45:09.713Z,96.70
2019-02-16T03:47:38.297Z,96.70
2019-02-16T03:50:08.709Z,96.70
2019-02-16T03:52:37.303Z,96.70
2019-02-16T03:55:06.238Z,96.70
2019-02-16T03:57:34.825Z,96.70
2019-02-16T04:00:03.580Z,96.70
2019-02-16T04:02:32.193Z,96.60
2019-02-16T04:05:00.663Z,96.40
2019-02-16T04:07:29.248Z,96.30
2019-02-16T04:09:57.885Z,96.40
2019-02-16T04:12:26.419Z,96.40
2019-02-16T04:14:54.939Z,96.40
2019-02-16T04:17:23.622Z,96.30
2019-02-16T04:19:52.271Z,96.40
2019-02-16T04:22:24.587Z,96.40
2019-02-16T04:24:51.153Z,96.50
2019-02-16T04:27:19.743Z,96.70
2019-02-16T04:29:48.309Z,96.60
2019-02-16T04:32:16.998Z,96.60
2019-02-16T04:34:45.694Z,96.60
2019-02-16T04:37:14.412Z,96.70
2019-02-16T04:39:42.956Z,96.70
2019-02-16T04:42:11.497Z,96.70
2019-02-16T04:44:40.069Z,96.70
2019-02-16T04:47:08.678Z,96.60
2019-02-16T04:49:37.252Z,96.60
2019-02-16T04:52:05.972Z,96.60
2019-02-16T04:54:34.406Z,96.60
2019-02-16T04:57:02.944Z,96.70
2019-02-16T04:59:31.686Z,96.70
2019-02-16T05:02:00.243Z,96.70
2019-02-16T05:04:28.796Z,96.70
2019-02-16T05:06:57.368Z,96.60
2019-02-16T05:09:26.014Z,96.70
2019-02-16T05:11:54.511Z,96.70
2019-02-16T05:14:23.245Z,96.70
2019-02-16T05:16:55.298Z,96.80
2019-02-16T05:19:23.829Z,96.80
2019-02-16T05:21:52.425Z,96.80
2019-02-16T05:24:21.032Z,96.90
2019-02-16T05:26:49.531Z,96.90
2019-02-16T05:29:18.393Z,96.90
2019-02-16T05:31:47.288Z,97.00
2019-02-16T05:34:16.089Z,97.10
2019-02-16T05:36:44.670Z,97.00
2019-02-16T05:39:13.191Z,97.00
2019-02-16T05:41:41.754Z,97.00
2019-02-16T05:44:10.371Z,97.10
2019-02-16T05:46:39.122Z,97.10
2019-02-16T05:49:07.773Z,97.10
2019-02-16T05:51:36.259Z,97.10
2019-02-16T05:54:04.766Z,97.10
2019-02-16T05:56:33.384Z,97.30
2019-02-16T05:59:02.088Z,96.90
2019-02-16T06:01:30.596Z,96.80
2019-02-16T06:03:59.176Z,96.70
2019-02-16T06:06:27.787Z,96.60
2019-02-16T06:08:56.352Z,96.50
2019-02-16T06:11:24.930Z,96.40
2019-02-16T06:13:53.574Z,96.70
2019-02-16T06:16:22.171Z,96.10
2019-02-16T06:18:50.859Z,95.90
2019-02-16T06:21:19.460Z,95.40
2019-02-16T06:23:48.112Z,94.80
2019-02-16T06:26:16.746Z,94.00
2019-02-16T06:28:45.288Z,93.20
2019-02-16T06:31:13.989Z,92.50
2019-02-16T06:33:42.477Z,92.00
2019-02-16T06:36:12.718Z,91.40
2019-02-16T06:38:41.321Z,90.50
2019-02-16T06:41:09.889Z,88.70
2019-02-16T06:43:38.553Z,85.20
2019-02-16T06:46:07.070Z,82.10
2019-02-16T06:48:35.515Z,78.00
2019-02-16T06:51:04.234Z,73.10
2019-02-16T06:53:32.856Z,69.30
2019-02-16T06:56:02.983Z,65.20
2019-02-16T06:58:33.466Z,61.80
2019-02-16T07:01:02.037Z,58.70
2019-02-16T07:03:30.731Z,56.70
2019-02-16T07:05:59.463Z,56.40
2019-02-16T07:08:28.150Z,55.90
2019-02-16T07:10:56.776Z,55.30
2019-02-16T07:13:25.408Z,53.70
2019-02-16T07:16:11.959Z,52.90
2019-02-16T07:18:42.185Z,50.30
2019-02-16T07:21:10.942Z,49.70
2019-02-16T07:23:39.525Z,49.40
2019-02-16T07:26:08.191Z,48.30
2019-02-16T07:28:36.896Z,47.60
2019-02-16T07:31:05.568Z,46.80
2019-02-16T07:33:34.300Z,46.30
2019-02-16T07:36:02.898Z,45.30
2019-02-16T07:38:32.974Z,44.90
2019-02-16T07:41:01.613Z,43.90
2019-02-16T07:43:37.869Z,42.80
2019-02-16T07:46:14.315Z,42.60
2019-02-16T07:48:44.486Z,41.30
2019-02-16T07:51:14.685Z,40.80
2019-02-16T07:53:48.063Z,40.10
2019-02-16T07:56:21.274Z,39.30
2019-02-16T07:59:07.864Z,38.80
2019-02-16T08:01:40.823Z,37.90
2019-02-16T08:04:23.256Z,37.00
2019-02-16T08:07:11.689Z,37.40
2019-02-16T08:09:44.622Z,37.10
2019-02-16T08:12:14.827Z,36.40
2019-02-16T08:14:54.163Z,35.50
2019-02-16T08:17:27.157Z,36.10
2019-02-16T08:20:12.403Z,36.70
2019-02-16T08:22:45.677Z,37.80
2019-02-16T08:25:34.318Z,37.70
2019-02-16T08:28:10.407Z,37.40
2019-02-16T08:30:40.707Z,37.50
2019-02-16T08:33:21.404Z,37.90
2019-02-16T08:36:00.838Z,37.70
2019-02-16T08:38:40.340Z,38.40
2019-02-16T08:41:27.145Z,37.80
2019-02-16T08:44:00.115Z,37.50
2019-02-16T08:46:30.419Z,37.60
2019-02-16T08:49:06.199Z,37.70
2019-02-16T08:51:36.445Z,37.80
2019-02-16T08:54:09.428Z,37.80
2019-02-16T08:56:43.657Z,37.60
2019-02-16T08:59:29.093Z,38.10
2019-02-16T09:02:08.311Z,38.50
2019-02-16T09:04:38.582Z,38.40
2019-02-16T09:07:25.111Z,40.10
2019-02-16T09:10:04.419Z,42.20
2019-02-16T09:12:37.732Z,44.20
2019-02-16T09:15:27.396Z,47.40
2019-02-16T09:17:57.787Z,50.30
2019-02-16T09:20:27.980Z,52.30
2019-02-16T09:22:58.096Z,53.60
2019-02-16T09:25:31.116Z,54.50
2019-02-16T09:28:10.169Z,55.60
2019-02-16T09:30:55.716Z,56.10
2019-02-16T09:33:28.766Z,56.00
2019-02-16T09:36:01.864Z,56.10
2019-02-16T09:38:38.468Z,55.90
2019-02-16T09:41:14.506Z,55.00
2019-02-16T09:43:47.404Z,55.10
2019-02-16T09:46:26.593Z,54.50
2019-02-16T09:49:14.999Z,53.60
2019-02-16T09:51:47.810Z,53.40
2019-02-16T09:54:24.018Z,52.90
2019-02-16T09:56:54.348Z,53.20
2019-02-16T09:59:24.534Z,53.70
2019-02-16T10:02:03.364Z,54.00
2019-02-16T10:04:39.616Z,54.80
2019-02-16T10:07:19.012Z,53.70
2019-02-16T10:10:01.682Z,54.00
2019-02-16T10:12:47.017Z,54.50
2019-02-16T10:15:17.163Z,54.10
2019-02-16T10:17:47.391Z,54.60
2019-02-16T10:20:17.700Z,54.60
2019-02-16T10:22:53.725Z,55.00
2019-02-16T10:25:32.437Z,55.00
2019-02-16T10:28:02.672Z,54.90
2019-02-16T10:30:48.817Z,55.00
2019-02-16T10:33:21.862Z,55.00
2019-02-16T10:35:57.900Z,55.10
2019-02-16T10:38:30.773Z,55.30
2019-02-16T10:41:17.394Z,55.60
2019-02-16T10:43:47.627Z,55.90
2019-02-16T10:46:23.776Z,56.10
2019-02-16T10:48:59.753Z,56.30
2019-02-16T10:51:46.179Z,55.70
2019-02-16T10:54:16.506Z,55.00
2019-02-16T10:56:49.794Z,54.90
2019-02-16T10:59:36.242Z,54.80
2019-02-16T11:02:06.446Z,54.80
2019-02-16T11:04:38.501Z,54.60
2019-02-16T11:07:14.311Z,54.80
2019-02-16T11:09:44.641Z,54.60
2019-02-16T11:12:21.002Z,54.40
2019-02-16T11:14:59.831Z,54.20
2019-02-16T11:17:30.069Z,54.90
2019-02-16T11:20:00.451Z,53.90
2019-02-16T11:22:30.603Z,53.50
2019-02-16T11:25:16.182Z,53.10
2019-02-16T11:27:48.795Z,53.10
2019-02-16T11:30:19.077Z,52.90
2019-02-16T11:32:49.312Z,53.20
2019-02-16T11:35:19.582Z,52.50
2019-02-16T11:37:49.715Z,52.90
2019-02-16T11:40:20.045Z,52.80
2019-02-16T11:42:50.517Z,52.40
2019-02-16T11:45:20.794Z,52.30
2019-02-16T11:48:00.759Z,52.40
2019-02-16T11:50:36.782Z,52.20
2019-02-16T11:53:18.817Z,52.00
2019-02-16T11:55:54.831Z,51.90
2019-02-16T11:58:43.490Z,51.50
2019-02-16T12:01:13.665Z,51.50
2019-02-16T12:03:43.874Z,51.70
2019-02-16T12:06:14.200Z,51.70
2019-02-16T12:08:44.411Z,51.90
2019-02-16T12:11:20.760Z,52.10
2019-02-16T12:13:53.897Z,52.40
2019-02-16T12:16:30.231Z,52.20
2019-02-16T12:19:02.916Z,52.10
2019-02-16T12:21:42.687Z,52.00
2019-02-16T12:24:29.344Z,51.90
2019-02-16T12:27:17.661Z,51.60
2019-02-16T12:29:53.764Z,51.40
2019-02-16T12:32:33.233Z,51.00
2019-02-16T12:35:19.988Z,51.00
2019-02-16T12:37:59.009Z,50.70
2019-02-16T12:40:29.246Z,50.20
2019-02-16T12:43:08.737Z,49.70
2019-02-16T12:45:51.147Z,49.40
2019-02-16T12:48:26.540Z,49.60
2019-02-16T12:51:11.732Z,49.40
2019-02-16T12:53:51.008Z,48.50
2019-02-16T12:56:27.331Z,48.60
2019-02-16T12:58:57.605Z,48.40
2019-02-16T13:01:28.066Z,48.10
2019-02-16T13:04:13.186Z,48.30
2019-02-16T13:06:52.523Z,47.80
2019-02-16T13:09:22.898Z,47.00
2019-02-16T13:12:08.263Z,46.60
2019-02-16T13:14:47.095Z,45.70
2019-02-16T13:17:23.306Z,45.30
2019-02-16T13:19:53.622Z,45.30
2019-02-16T13:22:27.035Z,45.30
2019-02-16T13:25:03.355Z,45.30
2019-02-16T13:27:33.590Z,45.50
2019-02-16T13:30:06.769Z,45.60
2019-02-16T13:32:45.729Z,46.50
2019-02-16T13:35:19.190Z,46.80
2019-02-16T13:37:49.310Z,47.30
2019-02-16T13:40:25.423Z,47.80
2019-02-16T13:42:58.504Z,47.90
2019-02-16T13:45:47.164Z,48.50
2019-02-16T13:48:23.776Z,49.10
2019-02-16T13:51:03.490Z,49.80
2019-02-16T13:53:46.162Z,50.50
2019-02-16T13:56:25.100Z,50.90
2019-02-16T13:59:11.468Z,51.40
2019-02-16T14:01:41.684Z,52.10
2019-02-16T14:04:12.970Z,52.70
2019-02-16T14:06:48.961Z,53.30
2019-02-16T14:09:31.015Z,53.90
2019-02-16T14:12:01.317Z,54.20
2019-02-16T14:14:40.687Z,55.50
2019-02-16T14:17:16.512Z,55.10
2019-02-16T14:19:45.203Z,55.50
2019-02-16T14:22:13.795Z,55.90
2019-02-16T14:24:43.975Z,56.20
2019-02-16T14:27:12.632Z,56.80
2019-02-16T14:29:41.337Z,57.40
2019-02-16T14:32:10.008Z,57.80
2019-02-16T14:34:38.510Z,58.00
2019-02-16T14:37:08.760Z,58.60
2019-02-16T14:39:38.633Z,59.10
2019-02-16T14:42:07.446Z,59.10
2019-02-16T14:44:35.995Z,59.40
2019-02-16T14:47:04.707Z,59.80
2019-02-16T14:49:33.634Z,60.40
2019-02-16T14:52:02.307Z,60.70
2019-02-16T14:54:30.965Z,61.10
2019-02-16T14:56:59.584Z,61.50
2019-02-16T14:59:28.166Z,61.70
2019-02-16T15:01:56.828Z,62.30
2019-02-16T15:04:25.256Z,62.80
2019-02-16T15:06:53.906Z,63.30
2019-02-16T15:09:22.479Z,63.60
2019-02-16T15:11:51.061Z,63.60
2019-02-16T15:14:19.807Z,64.20
2019-02-16T15:16:48.572Z,64.80
2019-02-16T15:19:17.147Z,65.60
2019-02-16T15:21:45.807Z,66.30
2019-02-16T15:24:14.479Z,67.00
2019-02-16T15:26:43.061Z,67.40
2019-02-16T15:29:11.630Z,68.00
2019-02-16T15:31:40.280Z,68.70
2019-02-16T15:34:09.031Z,69.10
2019-02-16T15:36:37.829Z,69.90
2019-02-16T15:39:07.270Z,70.30
2019-02-16T15:41:35.909Z,70.70
2019-02-16T15:44:04.547Z,70.90
2019-02-16T15:46:33.225Z,70.70
2019-02-16T15:49:01.898Z,71.00
2019-02-16T15:51:30.495Z,70.90
2019-02-16T15:53:59.326Z,71.20
2019-02-16T15:56:27.977Z,71.40
2019-02-16T15:58:56.692Z,71.30
2019-02-16T16:01:25.445Z,71.70
2019-02-16T16:03:54.136Z,71.70
2019-02-16T16:06:22.705Z,71.70
2019-02-16T16:08:52.933Z,71.80
2019-02-16T16:11:38.039Z,72.00
2019-02-16T16:14:08.408Z,72.20
2019-02-16T16:16:38.706Z,72.30
2019-02-16T16:19:08.950Z,72.70
2019-02-16T16:21:39.262Z,72.80
2019-02-16T16:24:12.570Z,72.80
2019-02-16T16:26:42.819Z,73.50
2019-02-16T16:29:24.966Z,73.60
2019-02-16T16:31:55.340Z,73.90
2019-02-16T16:34:25.487Z,74.10
2019-02-16T16:37:01.331Z,74.30
2019-02-16T16:39:31.536Z,74.60
2019-02-16T16:42:01.810Z,74.60
2019-02-16T16:44:32.134Z,74.70
2019-02-16T16:47:19.221Z,74.90
2019-02-16T16:49:49.437Z,75.20
2019-02-16T16:52:19.722Z,75.30
2019-02-16T16:54:59.431Z,75.60
2019-02-16T16:57:29.555Z,75.70
2019-02-16T17:00:02.737Z,75.70
2019-02-16T17:02:39.039Z,75.70
2019-02-16T17:05:09.523Z,75.80
2019-02-16T17:07:45.506Z,76.10
2019-02-16T17:10:27.689Z,76.10
2019-02-16T17:13:13.912Z,76.20
2019-02-16T17:15:46.686Z,76.40
2019-02-16T17:18:16.994Z,76.60
2019-02-16T17:20:57.932Z,76.70
2019-02-16T17:23:43.250Z,76.70
2019-02-16T17:26:19.277Z,77.10
2019-02-16T17:29:07.780Z,77.00
2019-02-16T17:31:40.828Z,77.30
2019-02-16T17:34:11.074Z,77.30
2019-02-16T17:36:44.136Z,77.20
2019-02-16T17:39:14.424Z,77.60
2019-02-16T17:41:44.724Z,77.80
2019-02-16T17:44:33.439Z,77.90
2019-02-16T17:47:12.547Z,78.00
2019-02-16T17:49:48.749Z,78.10
2019-02-16T17:52:28.134Z,78.10
2019-02-16T17:55:13.289Z,78.20
2019-02-16T17:57:43.430Z,78.10
2019-02-16T18:00:29.396Z,77.90
2019-02-16T18:02:59.656Z,77.60
2019-02-16T18:05:29.863Z,77.60
2019-02-16T18:08:00.096Z,77.50
2019-02-16T18:10:46.282Z,77.20
2019-02-16T18:13:16.484Z,76.90
2019-02-16T18:15:49.313Z,76.90
2019-02-16T18:18:35.555Z,77.10
2019-02-16T18:21:06.293Z,77.20
2019-02-16T18:23:43.050Z,77.50
2019-02-16T18:26:13.233Z,77.50
2019-02-16T18:29:01.851Z,77.80
2019-02-16T18:31:37.960Z,77.90
2019-02-16T18:34:17.042Z,78.20
2019-02-16T18:36:59.630Z,78.00
2019-02-16T18:39:39.272Z,78.00
2019-02-16T18:42:09.394Z,78.00
2019-02-16T18:44:39.514Z,78.10
2019-02-16T18:47:09.867Z,78.30
2019-02-16T18:49:40.063Z,79.20
2019-02-16T18:52:25.385Z,78.50
2019-02-16T18:55:10.612Z,78.60
2019-02-16T18:57:49.834Z,78.60
2019-02-16T19:00:20.654Z,78.80
2019-02-16T19:02:51.005Z,78.50
2019-02-16T19:05:21.312Z,78.40
2019-02-16T19:07:51.588Z,78.10
2019-02-16T19:10:21.818Z,77.50
2019-02-16T19:13:01.169Z,77.10
2019-02-16T19:15:40.258Z,76.90
2019-02-16T19:18:10.504Z,76.80
2019-02-16T19:20:50.278Z,76.80
2019-02-16T19:23:29.234Z,77.40
2019-02-16T19:26:02.562Z,76.10
2019-02-16T19:28:59.797Z,76.10
2019-02-16T19:31:49.401Z,75.90
2019-02-16T19:34:19.688Z,76.10
2019-02-16T19:36:59.321Z,76.20
2019-02-16T19:39:35.609Z,76.20
2019-02-16T19:42:08.773Z,76.60
2019-02-16T19:44:42.077Z,76.40
2019-02-16T19:47:20.933Z,76.40
2019-02-16T19:49:51.261Z,76.20
2019-02-16T19:52:24.318Z,76.10
2019-02-16T19:55:00.535Z,76.00
2019-02-16T19:57:39.701Z,76.10
2019-02-16T20:00:30.370Z,76.10
2019-02-16T20:03:15.797Z,76.30
2019-02-16T20:05:46.010Z,76.30
2019-02-16T20:08:21.787Z,76.50
2019-02-16T20:11:08.287Z,76.70
2019-02-16T20:13:44.352Z,76.80
2019-02-16T20:16:27.602Z,77.20
2019-02-16T20:19:00.613Z,77.40
2019-02-16T20:21:39.634Z,77.50
2019-02-16T20:24:12.619Z,77.70
2019-02-16T20:26:45.716Z,77.70
2019-02-16T20:29:15.982Z,77.70
2019-02-16T20:32:01.716Z,77.70
2019-02-16T20:34:31.918Z,77.50
2019-02-16T20:37:02.137Z,76.90
2019-02-16T20:39:32.334Z,76.10
2019-02-16T20:42:05.298Z,75.50
2019-02-16T20:44:53.802Z,75.00
2019-02-16T20:47:39.246Z,74.40
2019-02-16T20:50:27.709Z,74.10
2019-02-16T20:52:57.899Z,73.50
2019-02-16T20:55:34.249Z,73.40
2019-02-16T20:58:13.605Z,73.50
2019-02-16T21:00:46.639Z,74.10
2019-02-16T21:03:20.066Z,73.70
2019-02-16T21:06:05.474Z,73.60
2019-02-16T21:08:52.102Z,73.30
2019-02-16T21:11:45.005Z,73.50
2019-02-16T21:14:30.075Z,73.50
2019-02-16T21:17:02.983Z,73.60
2019-02-16T21:19:41.801Z,73.80
2019-02-16T21:22:21.001Z,74.30
2019-02-16T21:24:55.255Z,74.40
2019-02-16T21:27:31.488Z,74.70
2019-02-16T21:30:01.806Z,74.90
2019-02-16T21:32:35.199Z,75.70
2019-02-16T21:35:05.568Z,76.00
2019-02-16T21:37:35.800Z,76.30
2019-02-16T21:40:09.199Z,77.00
2019-02-16T21:42:42.121Z,77.20
2019-02-16T21:45:12.992Z,77.00
2019-02-16T21:47:43.187Z,76.60
2019-02-16T21:50:30.157Z,76.30
2019-02-16T21:53:21.007Z,75.90
2019-02-16T21:55:50.083Z,75.50
2019-02-16T21:58:20.587Z,75.30
2019-02-16T22:00:59.616Z,75.10
2019-02-16T22:03:29.987Z,75.00
2019-02-16T22:06:06.561Z,75.00
2019-02-16T22:08:48.795Z,74.70
2019-02-16T22:11:34.325Z,74.70
2019-02-16T22:14:02.971Z,74.80
2019-02-16T22:16:37.237Z,75.00
2019-02-16T22:19:05.919Z,74.90
2019-02-16T22:21:36.400Z,74.80
2019-02-16T22:24:04.981Z,74.70
2019-02-16T22:26:33.739Z,74.90
2019-02-16T22:29:02.496Z,75.10
2019-02-16T22:31:31.222Z,75.70
2019-02-16T22:33:59.827Z,75.40
2019-02-16T22:36:28.543Z,75.90
2019-02-16T22:38:58.302Z,76.40
2019-02-16T22:41:27.094Z,77.00
2019-02-16T22:43:55.983Z,77.70
2019-02-16T22:46:24.485Z,78.00
2019-02-16T22:48:53.519Z,78.20
2019-02-16T22:51:22.095Z,78.50
2019-02-16T22:53:50.656Z,78.70
2019-02-16T22:56:19.567Z,78.90
2019-02-16T22:58:48.254Z,79.00
2019-02-16T23:01:16.832Z,79.40
2019-02-16T23:03:45.560Z,79.70
2019-02-16T23:06:14.200Z,79.70
2019-02-16T23:08:42.785Z,79.90
2019-02-16T23:11:11.413Z,79.90
2019-02-16T23:13:40.111Z,79.90
2019-02-16T23:16:08.800Z,80.10
2019-02-16T23:18:37.510Z,80.20
2019-02-16T23:21:06.075Z,80.20
2019-02-16T23:23:34.971Z,80.30
2019-02-16T23:26:04.173Z,80.80
2019-02-16T23:28:39.026Z,81.30
2019-02-16T23:31:03.209Z,82.10
2019-02-16T23:33:31.918Z,82.50
2019-02-16T23:36:20.039Z,82.70
2019-02-16T23:38:48.657Z,83.00
2019-02-16T23:41:17.243Z,83.40
2019-02-16T23:43:45.891Z,84.00
2019-02-16T23:46:14.521Z,84.70
2019-02-16T23:48:43.099Z,85.20
2019-02-16T23:51:11.709Z,85.80
2019-02-16T23:53:40.679Z,86.40
2019-02-16T23:56:09.205Z,86.40
2019-02-16T23:58:37.930Z,87.50
